Time;durP1;ratioP1;P1;durP2;ratioP2;P2;SDS_P1;SDS_P2;PMS_P1;PMS_P2;Temp;Humidity;BMP_temperature;BMP_pressure;BME280_temperature;BME280_humidity;BME280_pressure;Samples;Min_cycle;Max_cycle;Signal;HPM_P1;HPM_P2
2021/09/03 00:02:20;;;;;;;13.97;12.67;;;17.00;99.90;;;;;;5012794;28;20476;-71
2021/09/03 00:04:46;;;;;;;14.57;13.13;;;17.00;99.90;;;;;;5013872;28;20179;-71
2021/09/03 00:07:12;;;;;;;14.00;12.63;;;17.00;99.90;;;;;;5012449;28;21001;-74
2021/09/03 00:09:38;;;;;;;12.77;11.73;;;17.00;99.90;;;;;;5011855;28;20186;-72
2021/09/03 00:12:06;;;;;;;13.73;12.20;;;17.00;99.90;;;;;;5011818;28;20186;-72
2021/09/03 00:14:32;;;;;;;14.87;13.27;;;17.00;99.90;;;;;;5009063;28;20758;-72
2021/09/03 00:16:59;;;;;;;15.97;13.57;;;17.00;99.90;;;;;;5009324;28;20561;-71
2021/09/03 00:19:24;;;;;;;15.70;13.80;;;17.00;99.90;;;;;;5008463;28;20462;-72
2021/09/03 00:21:52;;;;;;;13.70;12.30;;;17.00;99.90;;;;;;5012208;28;20469;-72
2021/09/03 00:24:17;;;;;;;14.00;12.67;;;17.00;99.90;;;;;;5008464;28;20624;-84
2021/09/03 00:26:43;;;;;;;13.93;12.57;;;17.00;99.90;;;;;;5009223;28;20430;-72
2021/09/03 00:29:09;;;;;;;14.10;12.73;;;17.00;99.90;;;;;;5012892;28;20214;-72
2021/09/03 00:31:34;;;;;;;13.00;11.70;;;17.00;99.90;;;;;;5012183;28;20559;-71
2021/09/03 00:34:00;;;;;;;13.77;12.33;;;17.00;99.90;;;;;;5012836;28;20201;-71
2021/09/03 00:36:26;;;;;;;14.67;13.17;;;17.00;99.90;;;;;;5011863;28;20313;-72
2021/09/03 00:38:51;;;;;;;15.27;13.87;;;17.00;99.90;;;;;;5012026;28;20591;-75
2021/09/03 00:41:17;;;;;;;15.90;14.20;;;17.00;99.90;;;;;;5013045;28;20183;-71
2021/09/03 00:43:45;;;;;;;14.60;13.20;;;17.00;99.90;;;;;;5013019;28;20175;-71
2021/09/03 00:46:11;;;;;;;14.23;12.90;;;17.00;99.90;;;;;;5012743;28;20445;-72
2021/09/03 00:48:36;;;;;;;15.20;13.83;;;17.00;99.90;;;;;;5012237;28;20905;-71
2021/09/03 00:51:02;;;;;;;13.83;12.63;;;17.00;99.90;;;;;;5012935;28;20211;-71
2021/09/03 00:53:28;;;;;;;15.13;13.73;;;17.00;99.90;;;;;;5011568;28;20178;-72
2021/09/03 00:55:54;;;;;;;14.47;13.07;;;16.90;99.90;;;;;;5012625;28;20817;-70
2021/09/03 00:58:21;;;;;;;19.00;14.13;;;16.90;99.90;;;;;;5011063;28;20425;-74
2021/09/03 01:00:50;;;;;;;14.33;12.93;;;16.90;99.90;;;;;;5012305;28;20233;-71
2021/09/03 01:03:17;;;;;;;14.47;13.13;;;16.80;99.90;;;;;;5012477;28;20790;-72
2021/09/03 01:05:43;;;;;;;14.50;13.20;;;16.80;99.90;;;;;;5011930;28;20764;-71
2021/09/03 01:08:09;;;;;;;14.27;12.67;;;16.80;99.90;;;;;;5012698;28;20939;-71
2021/09/03 01:10:35;;;;;;;13.70;12.30;;;16.80;99.90;;;;;;5011308;28;20422;-72
2021/09/03 01:13:01;;;;;;;14.07;12.67;;;16.80;99.90;;;;;;5011969;28;20413;-71
2021/09/03 01:15:27;;;;;;;13.60;12.37;;;16.80;99.90;;;;;;5010542;28;20433;-72
2021/09/03 01:17:53;;;;;;;13.80;12.53;;;16.80;99.90;;;;;;5000890;28;20458;-71
2021/09/03 01:20:19;;;;;;;13.50;12.23;;;16.80;99.90;;;;;;4993007;28;20426;-72
2021/09/03 01:22:46;;;;;;;14.60;12.77;;;16.80;99.90;;;;;;4990936;28;20415;-71
2021/09/03 01:25:12;;;;;;;13.30;12.00;;;16.70;99.90;;;;;;4992797;28;20414;-72
2021/09/03 01:27:40;;;;;;;14.53;12.40;;;16.70;99.90;;;;;;4991859;28;20478;-72
2021/09/03 01:30:08;;;;;;;13.83;12.47;;;16.70;99.90;;;;;;4992816;28;20411;-72
2021/09/03 01:32:34;;;;;;;13.40;12.10;;;16.70;99.90;;;;;;4991930;28;20410;-72
2021/09/03 01:35:00;;;;;;;15.53;12.10;;;16.70;99.90;;;;;;4992135;28;20923;-72
2021/09/03 01:37:25;;;;;;;13.57;12.17;;;16.70;99.90;;;;;;4991659;28;20207;-80
2021/09/03 01:39:51;;;;;;;13.30;12.00;;;16.70;99.90;;;;;;4992425;28;20584;-71
2021/09/03 01:42:17;;;;;;;13.30;12.00;;;16.70;99.90;;;;;;4992832;28;20270;-72
2021/09/03 01:44:42;;;;;;;12.50;11.30;;;16.60;99.90;;;;;;4991529;28;20186;-71
2021/09/03 01:47:08;;;;;;;13.43;12.10;;;16.60;99.90;;;;;;4992600;28;20180;-71
2021/09/03 01:49:34;;;;;;;14.03;12.73;;;16.60;99.90;;;;;;4990591;28;20267;-72
2021/09/03 01:52:00;;;;;;;13.90;12.60;;;16.60;99.90;;;;;;4992570;28;20643;-71
2021/09/03 01:54:25;;;;;;;12.83;11.73;;;16.60;99.90;;;;;;4991361;28;20184;-84
2021/09/03 01:56:51;;;;;;;13.73;12.13;;;16.60;99.90;;;;;;4992651;28;20207;-71
2021/09/03 01:59:17;;;;;;;13.43;12.00;;;16.50;99.90;;;;;;4993636;28;20196;-72
2021/09/03 02:01:42;;;;;;;14.30;12.47;;;16.50;99.90;;;;;;4991496;28;20375;-71
2021/09/03 02:04:08;;;;;;;14.20;12.70;;;16.40;99.90;;;;;;4992288;28;20193;-71
2021/09/03 02:06:34;;;;;;;14.13;12.77;;;16.40;99.90;;;;;;4991736;28;20211;-72
2021/09/03 02:09:00;;;;;;;14.17;12.77;;;16.30;99.90;;;;;;4992602;28;20176;-71
2021/09/03 02:11:25;;;;;;;15.90;12.27;;;16.30;99.90;;;;;;4991777;28;20579;-84
2021/09/03 02:13:51;;;;;;;13.13;11.83;;;16.30;99.90;;;;;;4992126;28;20282;-71
2021/09/03 02:16:17;;;;;;;11.80;10.70;;;16.30;99.90;;;;;;4992305;28;20211;-71
2021/09/03 02:18:42;;;;;;;12.30;11.10;;;16.30;99.90;;;;;;4997763;28;20253;-72
2021/09/03 02:21:08;;;;;;;12.43;11.00;;;16.40;99.90;;;;;;5012029;28;20757;-71
2021/09/03 02:23:34;;;;;;;13.53;11.23;;;16.40;99.90;;;;;;5009915;28;20186;-72
2021/09/03 02:26:00;;;;;;;11.80;10.47;;;16.40;99.90;;;;;;5013957;28;20233;-71
2021/09/03 02:28:26;;;;;;;17.43;15.73;;;16.40;99.90;;;;;;5014572;28;20237;-85
2021/09/03 02:30:51;;;;;;;13.20;12.07;;;16.40;99.90;;;;;;5013820;28;20407;-72
2021/09/03 02:33:17;;;;;;;14.53;12.40;;;16.40;99.90;;;;;;5015204;28;20646;-71
2021/09/03 02:35:43;;;;;;;16.63;12.17;;;16.30;99.90;;;;;;5014178;28;20237;-72
2021/09/03 02:38:12;;;;;;;12.90;11.57;;;16.30;99.90;;;;;;5015550;28;20202;-71
2021/09/03 02:40:38;;;;;;;13.87;12.60;;;16.30;99.90;;;;;;5014668;28;20638;-72
2021/09/03 02:43:04;;;;;;;13.57;12.23;;;16.30;99.90;;;;;;5015469;28;20406;-71
2021/09/03 02:45:29;;;;;;;14.43;13.03;;;16.30;99.90;;;;;;5013336;28;20199;-72
2021/09/03 02:47:55;;;;;;;12.40;11.37;;;16.30;99.90;;;;;;5014231;28;20178;-72
2021/09/03 02:50:21;;;;;;;13.07;11.87;;;16.30;99.90;;;;;;5013908;28;20170;-72
2021/09/03 02:52:47;;;;;;;13.10;12.00;;;16.20;99.90;;;;;;5013506;28;20458;-71
2021/09/03 02:55:13;;;;;;;13.30;12.00;;;16.20;99.90;;;;;;5015260;28;20429;-71
2021/09/03 02:57:39;;;;;;;12.17;10.90;;;16.20;99.90;;;;;;5014619;28;20205;-72
2021/09/03 03:00:07;;;;;;;12.47;11.27;;;16.20;99.90;;;;;;5015164;28;20181;-71
2021/09/03 03:02:32;;;;;;;12.10;10.90;;;16.20;99.90;;;;;;5014607;28;20413;-72
2021/09/03 03:04:58;;;;;;;16.00;12.40;;;16.10;99.90;;;;;;5014922;28;20409;-72
2021/09/03 03:07:24;;;;;;;14.17;11.93;;;16.10;99.90;;;;;;5013804;28;20189;-71
2021/09/03 03:09:49;;;;;;;13.30;12.00;;;16.10;99.90;;;;;;5014171;28;20227;-71
2021/09/03 03:12:18;;;;;;;13.23;12.13;;;16.10;99.90;;;;;;5014940;28;20579;-71
2021/09/03 03:14:44;;;;;;;14.93;12.47;;;16.10;99.90;;;;;;5014508;28;20629;-72
2021/09/03 03:17:10;;;;;;;13.40;12.20;;;16.10;99.90;;;;;;5014714;28;20449;-71
2021/09/03 03:19:36;;;;;;;13.67;12.10;;;16.10;99.90;;;;;;5014164;28;20633;-72
2021/09/03 03:22:02;;;;;;;13.03;11.80;;;16.10;99.90;;;;;;5014681;28;20249;-72
2021/09/03 03:24:28;;;;;;;13.17;11.97;;;16.10;99.90;;;;;;5014495;28;20413;-88
2021/09/03 03:26:55;;;;;;;15.77;12.20;;;16.00;99.90;;;;;;5014670;28;20427;-72
2021/09/03 03:29:21;;;;;;;13.60;11.70;;;16.00;99.90;;;;;;5014335;28;20416;-71
2021/09/03 03:31:47;;;;;;;14.33;11.63;;;16.00;99.90;;;;;;5012705;28;20429;-71
2021/09/03 03:34:13;;;;;;;12.37;11.20;;;16.00;99.90;;;;;;5014251;28;20939;-71
2021/09/03 03:36:38;;;;;;;12.87;11.67;;;16.00;99.90;;;;;;5013322;28;20282;-72
2021/09/03 03:39:05;;;;;;;13.20;11.90;;;16.00;99.90;;;;;;5014355;28;20211;-70
2021/09/03 03:41:31;;;;;;;14.67;12.37;;;16.00;99.90;;;;;;5013776;28;20175;-70
2021/09/03 03:43:56;;;;;;;13.47;12.13;;;16.00;99.90;;;;;;5014309;28;20409;-70
2021/09/03 03:46:23;;;;;;;12.53;11.43;;;15.90;99.90;;;;;;5013857;28;20172;-70
2021/09/03 03:48:48;;;;;;;16.53;12.60;;;15.90;99.90;;;;;;5012218;28;20648;-70
2021/09/03 03:51:14;;;;;;;14.30;12.87;;;15.90;99.90;;;;;;5014491;28;20413;-70
2021/09/03 03:53:40;;;;;;;14.23;12.77;;;15.90;99.90;;;;;;5020668;28;20656;-70
2021/09/03 03:56:06;;;;;;;13.10;11.90;;;15.90;99.90;;;;;;5033129;28;20423;-70
2021/09/03 03:58:31;;;;;;;14.30;13.00;;;16.00;99.90;;;;;;5031521;28;20182;-78
2021/09/03 04:00:57;;;;;;;16.37;14.87;;;15.90;99.90;;;;;;5012814;28;20188;-70
2021/09/03 04:03:23;;;;;;;14.33;12.93;;;15.90;99.90;;;;;;5013762;28;20264;-70
2021/09/03 04:05:48;;;;;;;15.40;13.17;;;15.90;99.90;;;;;;5012902;28;20181;-70
2021/09/03 04:08:14;;;;;;;14.90;13.50;;;15.80;99.90;;;;;;5013897;28;20186;-70
2021/09/03 04:10:40;;;;;;;13.53;12.33;;;15.80;99.90;;;;;;5013471;28;20261;-70
2021/09/03 04:13:05;;;;;;;14.53;13.23;;;15.80;99.90;;;;;;5013509;28;20190;-70
2021/09/03 04:15:31;;;;;;;13.67;12.40;;;15.80;99.90;;;;;;5011490;28;20213;-73
2021/09/03 04:17:57;;;;;;;17.63;15.50;;;15.80;99.90;;;;;;5013379;28;20210;-70
2021/09/03 04:20:23;;;;;;;12.53;11.23;;;15.80;99.90;;;;;;5012893;28;20203;-69
2021/09/03 04:22:49;;;;;;;16.77;15.10;;;15.80;99.90;;;;;;5012942;28;20594;-69
2021/09/03 04:25:15;;;;;;;14.27;12.77;;;15.80;99.90;;;;;;5012721;28;20428;-70
2021/09/03 04:27:41;;;;;;;14.00;12.57;;;15.70;99.90;;;;;;5012626;28;20195;-69
2021/09/03 04:30:08;;;;;;;13.40;11.97;;;15.70;99.90;;;;;;5012703;28;20275;-70
2021/09/03 04:32:34;;;;;;;14.97;13.53;;;15.70;99.90;;;;;;5012834;28;20416;-70
2021/09/03 04:35:00;;;;;;;12.93;11.70;;;15.70;99.90;;;;;;5011665;28;20505;-69
2021/09/03 04:37:25;;;;;;;14.47;13.10;;;15.70;99.90;;;;;;5013012;28;20464;-69
2021/09/03 04:39:51;;;;;;;16.17;12.67;;;15.70;99.90;;;;;;5011552;28;20629;-69
2021/09/03 04:42:17;;;;;;;16.97;15.23;;;15.70;99.90;;;;;;5013293;28;20181;-70
2021/09/03 04:44:43;;;;;;;16.17;14.33;;;15.70;99.90;;;;;;5012176;28;20168;-69
2021/09/03 04:47:09;;;;;;;14.83;13.33;;;15.70;99.90;;;;;;5011973;28;20272;-69
2021/09/03 04:49:34;;;;;;;19.00;15.67;;;15.70;99.90;;;;;;5011964;28;20413;-78
2021/09/03 04:52:00;;;;;;;19.90;15.00;;;15.70;99.90;;;;;;5012600;28;20416;-70
2021/09/03 04:54:26;;;;;;;19.87;15.20;;;15.60;99.90;;;;;;5012612;28;20190;-71
2021/09/03 04:56:51;;;;;;;19.00;14.93;;;15.60;99.90;;;;;;5012786;28;20205;-69
2021/09/03 04:59:17;;;;;;;16.03;14.53;;;15.60;99.90;;;;;;5012766;28;20269;-69
2021/09/03 05:01:43;;;;;;;13.83;12.43;;;15.50;99.90;;;;;;5012652;28;20178;-70
2021/09/03 05:04:08;;;;;;;18.50;16.80;;;15.50;99.90;;;;;;5012429;28;20633;-68
2021/09/03 05:06:34;;;;;;;14.47;12.83;;;15.50;99.90;;;;;;5012199;28;20246;-79
2021/09/03 05:09:00;;;;;;;17.23;15.73;;;15.40;99.90;;;;;;5012968;28;20628;-68
2021/09/03 05:11:26;;;;;;;13.90;12.50;;;15.40;99.90;;;;;;5013164;28;20230;-68
2021/09/03 05:13:51;;;;;;;18.47;13.77;;;15.40;99.90;;;;;;5012243;28;20174;-68
2021/09/03 05:16:17;;;;;;;15.63;14.23;;;15.40;99.90;;;;;;5011108;28;20208;-68
2021/09/03 05:18:43;;;;;;;19.50;13.67;;;15.40;99.90;;;;;;5011718;28;20304;-68
2021/09/03 05:21:08;;;;;;;16.30;14.30;;;15.30;99.90;;;;;;5012766;28;20182;-68
2021/09/03 05:23:35;;;;;;;16.80;14.00;;;15.30;99.90;;;;;;5012793;28;20566;-69
2021/09/03 05:26:01;;;;;;;16.87;15.23;;;15.30;99.90;;;;;;5012292;28;20587;-69
2021/09/03 05:28:27;;;;;;;15.57;13.03;;;15.30;99.90;;;;;;5012641;28;20422;-68
2021/09/03 05:30:54;;;;;;;16.23;13.40;;;15.40;99.90;;;;;;5027342;28;20176;-69
2021/09/03 05:33:20;;;;;;;13.27;11.73;;;15.30;99.90;;;;;;5012453;28;20513;-68
2021/09/03 05:35:46;;;;;;;14.63;13.23;;;15.30;99.90;;;;;;5021390;28;20493;-69
2021/09/03 05:38:11;;;;;;;13.33;12.13;;;15.30;99.90;;;;;;5032256;28;20457;-69
2021/09/03 05:40:37;;;;;;;16.57;12.83;;;15.30;99.90;;;;;;4995177;28;20542;-69
2021/09/03 05:43:03;;;;;;;14.27;11.90;;;15.30;99.90;;;;;;4994222;28;20230;-69
2021/09/03 05:45:29;;;;;;;14.93;12.87;;;15.30;99.90;;;;;;5011679;28;20252;-69
2021/09/03 05:47:55;;;;;;;14.80;12.33;;;15.30;99.90;;;;;;5011142;28;20420;-68
2021/09/03 05:50:21;;;;;;;16.20;13.03;;;15.30;99.90;;;;;;5012459;28;20410;-69
2021/09/03 05:52:47;;;;;;;14.20;12.73;;;15.30;99.90;;;;;;5011758;28;20177;-69
2021/09/03 05:55:13;;;;;;;14.53;12.97;;;15.30;99.90;;;;;;5011884;28;20431;-69
2021/09/03 05:57:39;;;;;;;14.37;12.87;;;15.30;99.90;;;;;;5011471;28;20302;-69
2021/09/03 06:00:06;;;;;;;13.40;12.10;;;15.40;99.90;;;;;;5015868;28;20638;-69
2021/09/03 06:02:32;;;;;;;16.57;11.20;;;15.40;99.90;;;;;;5016012;28;20452;-69
2021/09/03 06:04:58;;;;;;;14.03;12.57;;;15.40;99.90;;;;;;5015198;28;20441;-69
2021/09/03 06:07:24;;;;;;;13.80;12.50;;;15.40;99.90;;;;;;5016070;28;20822;-69
2021/09/03 06:09:49;;;;;;;14.27;12.87;;;15.40;99.90;;;;;;5015387;28;20172;-69
2021/09/03 06:12:15;;;;;;;15.40;13.80;;;15.50;99.90;;;;;;5016031;28;20173;-69
2021/09/03 06:14:41;;;;;;;14.63;13.13;;;15.50;99.90;;;;;;5015379;28;20679;-69
2021/09/03 06:17:07;;;;;;;17.20;15.47;;;15.50;99.90;;;;;;5016036;28;20217;-69
2021/09/03 06:19:32;;;;;;;16.70;14.90;;;15.50;99.90;;;;;;5015836;28;20176;-69
2021/09/03 06:22:00;;;;;;;18.77;17.07;;;15.50;99.90;;;;;;4997512;28;20427;-69
2021/09/03 06:24:30;;;;;;;16.10;14.50;;;15.60;99.90;;;;;;5015706;28;20428;-69
2021/09/03 06:27:08;;;;;;;18.67;16.83;;;15.60;99.90;;;;;;5015074;28;20448;-69
2021/09/03 06:32:17;;;;;;;18.43;16.63;;;15.70;99.90;;;;;;5015685;28;20393;-69
2021/09/03 06:34:45;;;;;;;20.03;17.93;;;15.80;99.90;;;;;;5014748;28;20415;-69
2021/09/03 06:37:12;;;;;;;16.73;15.13;;;15.80;99.90;;;;;;5015492;28;20453;-69
2021/09/03 06:39:38;;;;;;;15.50;13.90;;;15.80;99.90;;;;;;5015545;28;20421;-69
2021/09/03 06:42:05;;;;;;;15.40;13.77;;;15.70;99.90;;;;;;5014877;28;20459;-69
2021/09/03 06:44:31;;;;;;;15.90;14.17;;;15.80;99.90;;;;;;5014169;28;20456;-69
2021/09/03 06:46:57;;;;;;;15.17;13.53;;;15.80;99.90;;;;;;5014717;28;20436;-69
2021/09/03 06:49:23;;;;;;;15.47;13.87;;;15.90;99.90;;;;;;5015015;28;20417;-69
2021/09/03 06:51:49;;;;;;;15.80;14.30;;;15.90;99.90;;;;;;5014650;28;20413;-69
2021/09/03 06:54:15;;;;;;;16.23;14.63;;;16.00;99.90;;;;;;5015076;28;20420;-69
2021/09/03 06:56:40;;;;;;;17.27;15.60;;;16.10;99.90;;;;;;5014446;28;20206;-85
2021/09/03 06:59:06;;;;;;;16.80;14.70;;;16.20;99.90;;;;;;5015111;28;20750;-69
2021/09/03 07:01:32;;;;;;;16.23;14.63;;;16.20;99.90;;;;;;5015125;28;20534;-69
2021/09/03 07:03:58;;;;;;;17.03;15.43;;;16.20;99.90;;;;;;5014464;28;20182;-69
2021/09/03 07:06:23;;;;;;;17.27;15.10;;;16.30;99.90;;;;;;5015096;28;20548;-69
2021/09/03 07:08:49;;;;;;;18.40;16.60;;;16.30;99.90;;;;;;5014323;28;20192;-69
2021/09/03 07:11:15;;;;;;;15.40;13.80;;;16.30;99.90;;;;;;5013731;28;20175;-69
2021/09/03 07:13:41;;;;;;;15.30;13.70;;;16.40;99.90;;;;;;5014846;28;20175;-69
2021/09/03 07:16:07;;;;;;;17.63;15.93;;;16.50;99.90;;;;;;5014484;28;20358;-69
2021/09/03 07:18:33;;;;;;;16.60;14.63;;;16.40;99.90;;;;;;5014809;28;20171;-69
2021/09/03 07:20:58;;;;;;;18.67;16.97;;;16.50;99.90;;;;;;5014406;28;20418;-69
2021/09/03 07:23:24;;;;;;;18.50;15.43;;;16.50;99.90;;;;;;5014423;28;20567;-69
2021/09/03 07:25:50;;;;;;;16.43;14.60;;;16.60;99.90;;;;;;5013740;28;20537;-68
2021/09/03 07:28:16;;;;;;;15.67;14.10;;;16.70;99.90;;;;;;5014510;28;20183;-69
2021/09/03 07:30:42;;;;;;;17.53;15.77;;;16.80;99.90;;;;;;5014268;28;20195;-69
2021/09/03 07:33:08;;;;;;;16.80;15.03;;;16.90;99.90;;;;;;5014284;28;20442;-69
2021/09/03 07:35:34;;;;;;;18.97;17.10;;;17.00;99.90;;;;;;5014236;28;20489;-69
2021/09/03 07:38:00;;;;;;;17.80;15.90;;;17.10;99.90;;;;;;5012258;28;20210;-69
2021/09/03 07:40:29;;;;;;;16.77;14.93;;;17.10;99.90;;;;;;5014278;28;20623;-69
2021/09/03 07:42:55;;;;;;;20.03;15.40;;;17.20;99.90;;;;;;5013738;28;20175;-69
2021/09/03 07:45:21;;;;;;;17.37;15.67;;;17.30;99.90;;;;;;5013073;28;20413;-69
2021/09/03 07:47:47;;;;;;;15.97;14.37;;;17.40;99.90;;;;;;5013578;28;20768;-70
2021/09/03 07:50:17;;;;;;;16.80;15.27;;;17.50;99.90;;;;;;5012675;28;20419;-69
2021/09/03 07:52:42;;;;;;;17.47;15.87;;;17.50;99.90;;;;;;5014430;28;20410;-69
2021/09/03 07:55:09;;;;;;;17.10;15.40;;;17.70;99.90;;;;;;5013783;28;20411;-69
2021/09/03 07:57:34;;;;;;;16.20;14.50;;;17.70;99.90;;;;;;5013995;28;20817;-69
2021/09/03 08:00:00;;;;;;;16.17;14.67;;;17.80;99.90;;;;;;5012164;28;20764;-69
2021/09/03 08:02:26;;;;;;;16.93;15.13;;;18.00;99.90;;;;;;5012828;28;20595;-69
2021/09/03 08:04:53;;;;;;;19.07;17.40;;;18.10;99.90;;;;;;5013211;28;20183;-69
2021/09/03 08:07:19;;;;;;;16.37;14.67;;;18.20;99.90;;;;;;5012516;28;20308;-69
2021/09/03 08:09:45;;;;;;;18.67;15.57;;;18.30;99.90;;;;;;5013221;28;20502;-85
2021/09/03 08:12:11;;;;;;;15.37;13.80;;;18.40;99.90;;;;;;5013532;28;20174;-69
2021/09/03 08:14:37;;;;;;;17.63;14.10;;;18.50;99.90;;;;;;5013643;28;20421;-69
2021/09/03 08:17:04;;;;;;;14.60;13.20;;;18.50;99.90;;;;;;5012999;28;20461;-69
2021/09/03 08:19:30;;;;;;;13.60;12.30;;;18.60;99.90;;;;;;5013671;28;20207;-69
2021/09/03 08:21:56;;;;;;;14.03;12.77;;;18.70;99.90;;;;;;5012200;28;20464;-69
2021/09/03 08:24:21;;;;;;;15.87;14.37;;;18.80;99.90;;;;;;5013360;28;20418;-69
2021/09/03 08:26:47;;;;;;;15.13;13.73;;;18.80;99.90;;;;;;5012903;28;20415;-69
2021/09/03 08:29:13;;;;;;;16.60;15.00;;;18.90;99.90;;;;;;5013403;28;20681;-70
2021/09/03 08:31:39;;;;;;;18.17;16.17;;;18.90;99.90;;;;;;5013528;28;20167;-69
2021/09/03 08:34:06;;;;;;;15.00;13.70;;;18.90;99.90;;;;;;5012120;28;20456;-69
2021/09/03 08:36:32;;;;;;;16.40;15.03;;;18.80;99.90;;;;;;5008858;28;20223;-69
2021/09/03 08:38:58;;;;;;;15.73;14.10;;;18.80;99.90;;;;;;5012267;28;20791;-69
2021/09/03 08:41:24;;;;;;;13.77;12.63;;;18.80;99.90;;;;;;5012633;28;20405;-69
2021/09/03 08:43:58;;;;;;;13.67;12.40;;;19.00;99.90;;;;;;5012030;28;20480;-71
2021/09/03 08:46:26;;;;;;;15.47;13.97;;;19.10;99.90;;;;;;5011281;28;20493;-71
2021/09/03 08:48:52;;;;;;;15.13;13.77;;;19.20;99.90;;;;;;5012138;28;20421;-73
2021/09/03 08:51:19;;;;;;;13.07;11.70;;;19.20;99.90;;;;;;5012792;28;20413;-70
2021/09/03 08:53:46;;;;;;;11.57;10.30;;;19.30;99.90;;;;;;5012700;28;20557;-71
2021/09/03 08:56:12;;;;;;;12.50;11.17;;;19.40;99.90;;;;;;5012306;28;20422;-71
2021/09/03 08:58:39;;;;;;;13.57;10.60;;;19.50;99.90;;;;;;5012732;28;20516;-71
2021/09/03 09:01:12;;;;;;;11.60;10.50;;;19.70;99.90;;;;;;5012045;28;20425;-71
2021/09/03 09:03:41;;;;;;;12.60;11.30;;;19.70;99.90;;;;;;4993386;28;20454;-70
2021/09/03 09:06:09;;;;;;;13.70;11.30;;;19.90;99.90;;;;;;5005512;28;20952;-70
2021/09/03 09:08:36;;;;;;;12.37;11.10;;;20.00;99.90;;;;;;5012213;28;20429;-70
2021/09/03 09:11:04;;;;;;;13.73;12.33;;;20.10;99.90;;;;;;5012107;28;20444;-70
2021/09/03 09:13:36;;;;;;;11.80;10.70;;;20.20;99.90;;;;;;5012563;28;20434;-70
2021/09/03 09:16:11;;;;;;;11.80;10.60;;;20.20;99.90;;;;;;5011990;28;20418;-72
2021/09/03 09:18:40;;;;;;;13.57;12.20;;;20.50;99.90;;;;;;4995376;28;20542;-71
2021/09/03 09:21:26;;;;;;;11.90;10.77;;;20.60;99.90;;;;;;5008324;28;20445;-71
2021/09/03 09:23:57;;;;;;;11.30;10.17;;;20.80;99.90;;;;;;5011918;28;20898;-70
2021/09/03 09:26:43;;;;;;;11.47;10.37;;;21.10;99.90;;;;;;5009708;28;20433;-70
2021/09/03 09:29:29;;;;;;;12.73;10.03;;;21.30;99.90;;;;;;5010233;28;20760;-69
2021/09/03 09:32:03;;;;;;;11.63;10.63;;;21.60;99.90;;;;;;5010843;28;20452;-69
2021/09/03 09:34:31;;;;;;;12.00;11.00;;;21.80;99.90;;;;;;5011160;28;20425;-69
2021/09/03 09:37:00;;;;;;;10.80;9.90;;;22.10;99.90;;;;;;5015282;28;20492;-69
2021/09/03 09:39:38;;;;;;;10.77;9.77;;;22.30;99.90;;;;;;5014427;28;20453;-70
2021/09/03 09:42:04;;;;;;;10.73;9.67;;;22.40;98.10;;;;;;5014238;28;20426;-69
2021/09/03 09:44:35;;;;;;;9.57;8.73;;;22.70;98.90;;;;;;5015016;28;20496;-69
2021/09/03 09:47:12;;;;;;;10.03;9.13;;;22.90;98.50;;;;;;5015469;28;20266;-69
2021/09/03 09:49:38;;;;;;;11.50;10.50;;;23.10;98.90;;;;;;5016277;28;20437;-69
2021/09/03 09:52:05;;;;;;;11.30;10.30;;;23.30;96.90;;;;;;5015667;28;20416;-69
2021/09/03 09:54:31;;;;;;;10.87;9.77;;;23.50;97.60;;;;;;5016000;28;20768;-69
2021/09/03 09:56:59;;;;;;;11.30;9.23;;;23.80;98.80;;;;;;5015326;28;20468;-69
2021/09/03 09:59:30;;;;;;;11.10;10.10;;;24.00;98.30;;;;;;5015616;28;20639;-69
2021/09/03 10:02:01;;;;;;;10.90;9.90;;;24.20;97.30;;;;;;5015674;28;20862;-69
2021/09/03 10:04:29;;;;;;;10.53;9.63;;;24.50;97.40;;;;;;5015786;28;20394;-73
2021/09/03 10:06:59;;;;;;;11.40;10.40;;;24.80;96.30;;;;;;5014865;28;20807;-69
2021/09/03 10:09:27;;;;;;;10.50;9.40;;;24.90;94.30;;;;;;5016049;28;20441;-69
2021/09/03 10:11:54;;;;;;;10.30;9.40;;;25.00;94.40;;;;;;5015277;28;20404;-73
2021/09/03 10:14:27;;;;;;;10.57;9.67;;;25.10;94.70;;;;;;5015757;28;20406;-69
2021/09/03 10:16:54;;;;;;;13.70;10.63;;;25.30;93.50;;;;;;5015108;28;20449;-72
2021/09/03 10:19:41;;;;;;;11.73;10.83;;;25.50;95.50;;;;;;5015541;28;20752;-69
2021/09/03 10:22:15;;;;;;;10.13;9.23;;;25.60;93.20;;;;;;5015156;28;20398;-69
2021/09/03 10:24:45;;;;;;;10.07;9.17;;;25.80;92.70;;;;;;5015760;28;20406;-69
2021/09/03 10:27:12;;;;;;;10.27;9.37;;;25.90;92.60;;;;;;5013701;28;20756;-69
2021/09/03 10:29:40;;;;;;;10.77;9.87;;;26.00;93.10;;;;;;5015749;28;20773;-69
2021/09/03 10:34:40;;;;;;;9.63;8.73;;;26.30;91.70;;;;;;5014982;28;20509;-69
2021/09/03 10:37:12;;;;;;;10.63;9.63;;;26.40;91.80;;;;;;5014885;28;20202;-70
2021/09/03 10:40:03;;;;;;;9.37;8.60;;;26.50;89.70;;;;;;5015281;28;20810;-69
2021/09/03 10:42:39;;;;;;;10.77;9.87;;;26.50;91.10;;;;;;5015614;28;20833;-68
2021/09/03 10:45:12;;;;;;;11.90;10.90;;;26.70;92.60;;;;;;5011968;28;20870;-74
2021/09/03 10:47:47;;;;;;;11.13;10.13;;;26.80;92.70;;;;;;5014840;28;20444;-69
2021/09/03 10:50:50;;;;;;;13.33;12.13;;;27.00;91.50;;;;;;5011075;28;20421;-69
2021/09/03 10:53:18;;;;;;;13.13;12.23;;;27.20;91.30;;;;;;5012376;28;20803;-69
2021/09/03 10:55:56;;;;;;;10.57;9.53;;;27.40;90.40;;;;;;5014837;28;20414;-70
2021/09/03 10:58:36;;;;;;;10.20;9.43;;;27.50;86.60;;;;;;5013603;28;20934;-70
2021/09/03 11:01:11;;;;;;;10.37;9.47;;;27.60;90.40;;;;;;5028331;28;20777;-69
2021/09/03 11:04:03;;;;;;;9.20;8.60;;;27.80;89.10;;;;;;5014405;28;20475;-70
2021/09/03 11:06:33;;;;;;;10.57;9.70;;;28.00;86.60;;;;;;5012797;28;20413;-70
2021/09/03 11:09:22;;;;;;;9.60;8.90;;;28.10;83.90;;;;;;5013940;28;20438;-71
2021/09/03 11:11:54;;;;;;;12.73;11.63;;;28.10;84.90;;;;;;5012840;28;20446;-70
2021/09/03 11:14:22;;;;;;;11.03;10.23;;;28.20;87.30;;;;;;5014310;28;20468;-68
2021/09/03 11:16:58;;;;;;;10.30;9.50;;;28.30;81.70;;;;;;5014544;28;20564;-69
2021/09/03 11:19:32;;;;;;;10.30;9.50;;;28.40;78.40;;;;;;5014609;28;20429;-70
2021/09/03 11:22:18;;;;;;;11.50;10.70;;;28.30;76.00;;;;;;5014043;28;20417;-67
2021/09/03 11:25:03;;;;;;;11.03;10.23;;;28.40;81.10;;;;;;5012750;28;20837;-67
2021/09/03 11:27:30;;;;;;;11.00;9.93;;;28.50;81.10;;;;;;5013070;28;20418;-67
2021/09/03 11:30:00;;;;;;;10.30;9.50;;;28.40;78.40;;;;;;5012913;28;20456;-68
2021/09/03 11:32:34;;;;;;;10.47;9.60;;;28.30;79.10;;;;;;5014343;28;20892;-70
2021/09/03 11:35:03;;;;;;;11.63;9.93;;;28.30;76.40;;;;;;4993728;28;20793;-70
2021/09/03 11:37:35;;;;;;;10.97;9.97;;;28.20;78.80;;;;;;4994847;28;20848;-68
2021/09/03 11:40:14;;;;;;;10.63;9.83;;;28.10;75.10;;;;;;4994145;28;20761;-68
2021/09/03 11:43:03;;;;;;;10.97;9.97;;;28.10;76.70;;;;;;4994776;28;20477;-68
2021/09/03 11:45:39;;;;;;;10.73;9.93;;;28.00;75.20;;;;;;5002730;28;20913;-70
2021/09/03 11:48:11;;;;;;;10.87;9.77;;;27.60;78.20;;;;;;4997359;28;20923;-69
2021/09/03 11:50:45;;;;;;;10.40;9.57;;;27.70;77.40;;;;;;5014701;28;20814;-68
2021/09/03 11:53:14;;;;;;;10.90;10.10;;;27.80;82.00;;;;;;5013070;28;20411;-69
2021/09/03 11:55:43;;;;;;;10.17;9.10;;;27.90;77.90;;;;;;5013505;28;20753;-69
2021/09/03 11:58:13;;;;;;;10.50;9.70;;;28.00;79.40;;;;;;5011957;28;20801;-69
2021/09/03 12:00:42;;;;;;;10.03;9.27;;;28.20;82.50;;;;;;5013710;28;20406;-69
2021/09/03 12:03:13;;;;;;;9.77;9.07;;;28.30;79.70;;;;;;5013182;28;20414;-69
2021/09/03 12:05:42;;;;;;;10.80;9.90;;;28.30;79.70;;;;;;5012567;28;20492;-69
2021/09/03 12:08:14;;;;;;;10.50;9.60;;;28.40;80.00;;;;;;5011866;28;20418;-70
2021/09/03 12:10:40;;;;;;;11.07;10.17;;;28.40;79.60;;;;;;5012913;28;20949;-74
2021/09/03 12:13:20;;;;;;;11.20;10.30;;;28.40;80.40;;;;;;5013113;28;20490;-74
2021/09/03 12:15:55;;;;;;;10.10;9.17;;;28.30;81.40;;;;;;5013280;28;20178;-69
2021/09/03 12:18:29;;;;;;;12.30;11.20;;;28.10;81.90;;;;;;5013483;28;20445;-69
2021/09/03 12:20:56;;;;;;;12.10;11.30;;;27.90;81.40;;;;;;5012998;28;20409;-74
2021/09/03 12:23:23;;;;;;;11.93;10.93;;;27.70;83.70;;;;;;5013575;28;20881;-69
2021/09/03 12:25:49;;;;;;;10.83;10.03;;;27.60;84.60;;;;;;5013492;28;20481;-69
2021/09/03 12:28:19;;;;;;;12.93;11.77;;;27.50;84.90;;;;;;5011511;28;20691;-69
2021/09/03 12:30:51;;;;;;;12.40;11.50;;;27.50;83.80;;;;;;5013434;28;20410;-69
2021/09/03 12:33:21;;;;;;;12.10;11.00;;;27.40;83.00;;;;;;5012876;28;20447;-69
2021/09/03 12:35:49;;;;;;;13.80;11.47;;;27.30;85.20;;;;;;5013068;28;20846;-69
2021/09/03 12:38:15;;;;;;;11.60;10.70;;;27.30;86.10;;;;;;5011100;28;20458;-69